Minusinsk, Russia
Current Conditions -  °F | °C
As of 5:30 PM on Monday 26 Jan 2015 (Local Time) from UNAA Reporting Station
Smoke Smoke  
Wind Chill: -6°   Ceiling: Unl
Heat Index: -6°   Visibility: 1.8mi
Dew Point: -13°   Wind: 0mph
Humidity: 71%   Direction: NA
Pressure: 30.71"   Gusts: NA
Location:  53.71°N, 91.69°E
Report Text: UNAA 261030Z 00000MPS 3000 FU FEW006 M21/M25 Q1040 NOSIG RMKQFE757 52190055
Loading
Personal Weather Stations






























Interactive Weather Map New forecast layout! Learn more

10-Day Weather Forecast

Advertisements
Track Severe Weather on mobile